createdAt,value
2019-05-25T00:00:52.823Z,0.00
2019-05-25T00:01:52.805Z,0.00
2019-05-25T00:02:52.809Z,0.00
2019-05-25T00:03:52.863Z,0.00
2019-05-25T00:04:52.871Z,0.00
2019-05-25T00:05:52.837Z,0.00
2019-05-25T00:06:52.841Z,0.00
2019-05-25T00:07:52.866Z,0.00
2019-05-25T00:08:52.874Z,0.00
2019-05-25T00:09:52.875Z,0.00
2019-05-25T00:10:52.895Z,0.00
2019-05-25T00:11:52.968Z,0.00
2019-05-25T00:12:52.923Z,0.00
2019-05-25T00:13:52.937Z,0.00
2019-05-25T00:14:52.949Z,0.00
2019-05-25T00:15:52.942Z,0.00
2019-05-25T00:16:52.929Z,0.00
2019-05-25T00:17:52.961Z,0.00
2019-05-25T00:18:53.021Z,0.00
2019-05-25T00:19:52.981Z,0.00
2019-05-25T00:20:52.996Z,0.00
2019-05-25T00:21:52.987Z,0.00
2019-05-25T00:22:52.994Z,0.00
2019-05-25T00:23:53.015Z,0.00
2019-05-25T00:24:53.029Z,0.00
2019-05-25T00:25:53.023Z,0.00
2019-05-25T00:26:53.039Z,0.00
2019-05-25T00:27:53.042Z,0.00
2019-05-25T00:28:53.070Z,0.00
2019-05-25T00:29:53.095Z,0.00
2019-05-25T00:30:53.084Z,0.00
2019-05-25T00:31:53.136Z,0.00
2019-05-25T00:32:53.080Z,0.00
2019-05-25T00:33:53.087Z,0.00
2019-05-25T00:34:53.125Z,0.00
2019-05-25T00:35:53.122Z,0.00
2019-05-25T00:36:53.133Z,0.00
2019-05-25T00:37:53.155Z,0.00
2019-05-25T00:38:53.190Z,0.00
2019-05-25T00:39:53.147Z,0.00
2019-05-25T00:40:53.179Z,0.00
2019-05-25T00:41:53.205Z,0.00
2019-05-25T00:42:53.188Z,0.00
2019-05-25T00:43:53.219Z,0.00
2019-05-25T00:44:53.207Z,0.00
2019-05-25T00:45:53.221Z,0.00
2019-05-25T00:46:53.219Z,0.00
2019-05-25T00:47:53.227Z,0.00
2019-05-25T00:48:53.242Z,0.00
2019-05-25T00:49:53.236Z,0.00
2019-05-25T00:50:53.308Z,0.00
2019-05-25T00:51:53.269Z,0.00
2019-05-25T00:52:53.282Z,0.00
2019-05-25T00:53:53.280Z,0.00
2019-05-25T00:54:53.292Z,0.00
2019-05-25T00:55:53.302Z,0.00
2019-05-25T00:56:53.371Z,0.00
2019-05-25T00:57:53.306Z,0.00
2019-05-25T00:58:53.342Z,0.00
2019-05-25T00:59:53.323Z,0.00
2019-05-25T01:00:53.334Z,0.00
2019-05-25T01:01:53.387Z,0.00
2019-05-25T01:02:53.379Z,0.00
2019-05-25T01:03:53.378Z,0.00
2019-05-25T01:04:53.366Z,0.00
2019-05-25T01:05:53.381Z,0.00
2019-05-25T01:06:53.424Z,0.00
2019-05-25T01:07:53.423Z,0.00
2019-05-25T01:08:53.403Z,0.00
2019-05-25T01:09:53.421Z,0.00
2019-05-25T01:10:53.444Z,0.00
2019-05-25T01:11:53.444Z,0.00
2019-05-25T01:12:53.478Z,0.00
2019-05-25T01:13:53.450Z,0.00
2019-05-25T01:14:53.481Z,0.00
2019-05-25T01:15:53.467Z,0.00
2019-05-25T01:16:53.501Z,0.00
2019-05-25T01:17:53.529Z,0.00
2019-05-25T01:18:53.491Z,0.00
2019-05-25T01:19:53.497Z,0.00
2019-05-25T01:20:53.540Z,0.00
2019-05-25T01:21:53.632Z,0.00
2019-05-25T01:22:53.570Z,0.00
2019-05-25T01:23:53.545Z,0.00
2019-05-25T01:24:53.567Z,0.00
2019-05-25T01:25:53.577Z,0.00
2019-05-25T01:26:53.581Z,0.00
2019-05-25T01:27:53.573Z,0.00
2019-05-25T01:28:53.632Z,0.00
2019-05-25T01:29:53.595Z,0.00
2019-05-25T01:30:53.611Z,0.00
2019-05-25T01:31:53.638Z,0.00
2019-05-25T01:32:53.625Z,0.00
2019-05-25T01:33:53.656Z,0.00
2019-05-25T01:34:53.634Z,0.00
2019-05-25T01:35:53.655Z,0.00
2019-05-25T01:36:53.648Z,0.00
2019-05-25T01:37:53.674Z,0.00
2019-05-25T01:38:53.685Z,0.00
2019-05-25T01:39:53.717Z,0.00
2019-05-25T01:40:53.690Z,0.00
2019-05-25T01:41:53.701Z,0.00
2019-05-25T01:42:53.725Z,0.00
2019-05-25T01:43:53.721Z,0.00
2019-05-25T01:44:53.787Z,0.00
2019-05-25T01:45:53.728Z,0.00
2019-05-25T01:46:53.772Z,0.00
2019-05-25T01:47:53.762Z,0.00
2019-05-25T01:48:53.750Z,0.00
2019-05-25T01:49:53.814Z,0.00
2019-05-25T01:50:53.767Z,0.00
2019-05-25T01:51:53.776Z,0.00
2019-05-25T01:52:53.802Z,0.00
2019-05-25T01:53:53.848Z,0.00
2019-05-25T01:54:59.716Z,0.00
2019-05-25T01:55:53.830Z,0.00
2019-05-25T01:56:53.869Z,0.00
2019-05-25T01:57:53.837Z,0.00
2019-05-25T01:58:53.848Z,0.00
2019-05-25T01:59:53.908Z,0.00
2019-05-25T02:00:53.891Z,0.00
2019-05-25T02:01:53.860Z,0.00
2019-05-25T02:02:53.880Z,0.00
2019-05-25T02:03:53.892Z,0.00
2019-05-25T02:04:53.889Z,0.00
2019-05-25T02:05:53.960Z,0.00
2019-05-25T02:06:53.906Z,0.00
2019-05-25T02:07:53.923Z,0.00
2019-05-25T02:08:53.925Z,0.00
2019-05-25T02:09:53.931Z,0.00
2019-05-25T02:10:53.965Z,4.00
2019-05-25T02:11:54.546Z,4.00
2019-05-25T02:12:53.972Z,4.00
2019-05-25T02:13:54.007Z,0.00
2019-05-25T02:14:54.079Z,0.00
2019-05-25T02:15:53.994Z,4.00
2019-05-25T02:16:54.231Z,4.00
2019-05-25T02:17:53.998Z,4.00
2019-05-25T02:18:54.062Z,4.00
2019-05-25T02:19:54.013Z,4.00
2019-05-25T02:20:54.030Z,4.00
2019-05-25T02:21:54.057Z,4.00
2019-05-25T02:22:54.066Z,8.00
2019-05-25T02:23:54.064Z,8.00
2019-05-25T02:24:54.072Z,8.00
2019-05-25T02:25:54.085Z,12.00
2019-05-25T02:26:54.201Z,12.00
2019-05-25T02:27:54.151Z,16.00
2019-05-25T02:28:54.105Z,16.00
2019-05-25T02:29:54.114Z,16.00
2019-05-25T02:30:54.114Z,16.00
2019-05-25T02:31:54.105Z,20.00
2019-05-25T02:32:54.135Z,24.00
2019-05-25T02:33:54.157Z,24.00
2019-05-25T02:34:54.192Z,28.00
2019-05-25T02:35:54.147Z,32.00
2019-05-25T02:36:54.166Z,36.00
2019-05-25T02:37:54.182Z,40.00
2019-05-25T02:38:54.233Z,48.00
2019-05-25T02:39:54.182Z,48.00
2019-05-25T02:40:54.210Z,60.00
2019-05-25T02:41:54.201Z,64.00
2019-05-25T02:42:54.213Z,72.00
2019-05-25T02:43:54.226Z,80.00
2019-05-25T02:44:54.239Z,88.00
2019-05-25T02:45:54.225Z,100.00
2019-05-25T02:46:54.245Z,112.00
2019-05-25T02:47:54.231Z,124.00
2019-05-25T02:48:54.284Z,132.00
2019-05-25T02:49:54.280Z,144.00
2019-05-25T02:50:54.274Z,160.00
2019-05-25T02:51:54.279Z,176.00
2019-05-25T02:52:54.302Z,188.00
2019-05-25T02:53:54.306Z,208.00
2019-05-25T02:54:54.312Z,220.00
2019-05-25T02:55:54.303Z,236.00
2019-05-25T02:56:54.318Z,248.00
2019-05-25T02:57:54.325Z,264.00
2019-05-25T02:58:54.355Z,284.00
2019-05-25T02:59:54.382Z,300.00
2019-05-25T03:00:54.355Z,324.00
2019-05-25T03:01:54.343Z,348.00
2019-05-25T03:02:54.372Z,372.00
2019-05-25T03:03:54.419Z,396.00
2019-05-25T03:04:54.375Z,424.00
2019-05-25T03:05:54.389Z,452.00
2019-05-25T03:06:54.402Z,480.00
2019-05-25T03:07:54.417Z,508.00
2019-05-25T03:08:54.417Z,540.00
2019-05-25T03:09:54.443Z,572.00
2019-05-25T03:10:54.417Z,600.00
2019-05-25T03:11:54.428Z,636.00
2019-05-25T03:12:54.450Z,672.00
2019-05-25T03:13:54.506Z,708.00
2019-05-25T03:14:54.457Z,748.00
2019-05-25T03:15:54.468Z,784.00
2019-05-25T03:16:54.502Z,828.00
2019-05-25T03:17:54.475Z,872.00
2019-05-25T03:18:54.486Z,920.00
2019-05-25T03:19:54.523Z,968.00
2019-05-25T03:20:54.522Z,1012.00
2019-05-25T03:21:54.562Z,1060.00
2019-05-25T03:22:54.523Z,1116.00
2019-05-25T03:23:54.516Z,1184.00
2019-05-25T03:24:54.537Z,1268.00
2019-05-25T03:25:54.547Z,1324.00
2019-05-25T03:26:54.570Z,1364.00
2019-05-25T03:27:54.556Z,1416.00
2019-05-25T03:28:54.562Z,1476.00
2019-05-25T03:29:54.575Z,1532.00
2019-05-25T03:30:54.578Z,1600.00
2019-05-25T03:31:54.642Z,1692.00
2019-05-25T03:32:54.605Z,1852.00
2019-05-25T03:33:54.595Z,2072.00
2019-05-25T03:34:54.615Z,2272.00
2019-05-25T03:35:54.610Z,2344.00
2019-05-25T03:36:54.648Z,2364.00
2019-05-25T03:37:54.686Z,2456.00
2019-05-25T03:38:54.675Z,2664.00
2019-05-25T03:39:54.675Z,2696.00
2019-05-25T03:40:54.674Z,2668.00
2019-05-25T03:41:54.658Z,2916.00
2019-05-25T03:42:54.677Z,3100.00
2019-05-25T03:43:54.713Z,3108.00
2019-05-25T03:44:54.701Z,3020.00
2019-05-25T03:45:54.719Z,2908.00
2019-05-25T03:46:54.700Z,2736.00
2019-05-25T03:47:54.716Z,2616.00
2019-05-25T03:48:55.047Z,2652.00
2019-05-25T03:49:54.723Z,2724.00
2019-05-25T03:50:54.756Z,2756.00
2019-05-25T03:51:54.746Z,2892.00
2019-05-25T03:52:54.779Z,3052.00
2019-05-25T03:53:54.835Z,3228.00
2019-05-25T03:54:54.766Z,3632.00
2019-05-25T03:56:05.226Z,3892.00
2019-05-25T03:56:54.814Z,4008.00
2019-05-25T03:57:54.797Z,4008.00
2019-05-25T03:58:54.811Z,3972.00
2019-05-25T03:59:54.838Z,3868.00
2019-05-25T04:00:54.835Z,3608.00
2019-05-25T04:01:54.826Z,3212.00
2019-05-25T04:02:54.828Z,3032.00
2019-05-25T04:03:54.869Z,3372.00
2019-05-25T04:04:54.875Z,3976.00
2019-05-25T04:05:54.877Z,4860.00
2019-05-25T04:06:54.869Z,5916.00
2019-05-25T04:07:54.888Z,6716.00
2019-05-25T04:08:54.894Z,6912.00
2019-05-25T04:09:54.879Z,6800.00
2019-05-25T04:10:54.946Z,6420.00
2019-05-25T04:11:54.900Z,6456.00
2019-05-25T04:12:54.916Z,6552.00
2019-05-25T04:13:54.947Z,5672.00
2019-05-25T04:14:54.953Z,5452.00
2019-05-25T04:15:54.982Z,6568.00
2019-05-25T04:16:54.950Z,6692.00
2019-05-25T04:17:54.966Z,6276.00
2019-05-25T04:18:54.964Z,6516.00
2019-05-25T04:19:54.980Z,7700.00
2019-05-25T04:20:55.063Z,9456.00
2019-05-25T04:21:55.019Z,10440.00
2019-05-25T04:22:55.005Z,11300.00
2019-05-25T04:23:55.003Z,11664.00
2019-05-25T04:24:55.017Z,11500.00
2019-05-25T04:25:55.091Z,12612.00
2019-05-25T04:26:55.059Z,13376.00
2019-05-25T04:27:55.065Z,13472.00
2019-05-25T04:28:55.049Z,14152.00
2019-05-25T04:29:55.062Z,14880.00
2019-05-25T04:30:55.076Z,15232.00
2019-05-25T04:31:55.093Z,14624.00
2019-05-25T04:32:55.113Z,14232.00
2019-05-25T04:33:55.116Z,14112.00
2019-05-25T04:34:55.133Z,13500.00
2019-05-25T04:35:55.124Z,12516.00
2019-05-25T04:36:55.141Z,13704.00
2019-05-25T04:37:55.133Z,13704.00
2019-05-25T04:38:55.156Z,13544.00
2019-05-25T04:39:55.159Z,10932.00
2019-05-25T04:40:55.156Z,9844.00
2019-05-25T04:41:55.214Z,9280.00
2019-05-25T04:42:55.182Z,10444.00
2019-05-25T04:43:55.221Z,10976.00
2019-05-25T04:44:55.192Z,11064.00
2019-05-25T04:45:55.210Z,12408.00
2019-05-25T04:46:55.263Z,13232.00
2019-05-25T04:47:55.297Z,15008.00
2019-05-25T04:48:55.234Z,16256.00
2019-05-25T04:49:55.239Z,16736.00
2019-05-25T04:50:55.283Z,17376.00
2019-05-25T04:51:55.275Z,17888.00
2019-05-25T04:52:55.293Z,17152.00
2019-05-25T04:53:55.312Z,17664.00
2019-05-25T04:54:55.360Z,18240.00
2019-05-25T04:55:55.315Z,17792.00
2019-05-25T04:56:55.321Z,18080.00
2019-05-25T04:57:55.370Z,18592.00
2019-05-25T04:58:55.361Z,18080.00
2019-05-25T04:59:55.379Z,17568.00
2019-05-25T05:00:55.399Z,18400.00
2019-05-25T05:01:55.449Z,17888.00
2019-05-25T05:02:55.397Z,18240.00
2019-05-25T05:03:55.422Z,17824.00
2019-05-25T05:04:55.415Z,18016.00
2019-05-25T05:05:55.435Z,18400.00
2019-05-25T05:06:55.469Z,18720.00
2019-05-25T05:07:55.509Z,19584.00
2019-05-25T05:08:55.490Z,19232.00
2019-05-25T05:10:02.694Z,19744.00
2019-05-25T05:10:55.497Z,20736.00
2019-05-25T05:11:55.512Z,20704.00
2019-05-25T05:12:55.621Z,20384.00
2019-05-25T05:13:55.527Z,20576.00
2019-05-25T05:14:56.569Z,20352.00
2019-05-25T05:15:55.552Z,19776.00
2019-05-25T05:16:55.562Z,20416.00
2019-05-25T05:17:55.585Z,21344.00
2019-05-25T05:18:55.620Z,22144.00
2019-05-25T05:19:55.625Z,22112.00
2019-05-25T05:20:55.647Z,20544.00
2019-05-25T05:21:55.641Z,19104.00
2019-05-25T05:22:55.638Z,17216.00
2019-05-25T05:23:55.674Z,15552.00
2019-05-25T05:24:55.678Z,12792.00
2019-05-25T05:25:55.708Z,17280.00
2019-05-25T05:26:56.528Z,14932.00
2019-05-25T05:27:55.720Z,17024.00
2019-05-25T05:28:55.758Z,15088.00
2019-05-25T05:29:55.740Z,14776.00
2019-05-25T05:30:55.792Z,15324.00
2019-05-25T05:31:55.766Z,17184.00
2019-05-25T05:32:55.778Z,21344.00
2019-05-25T05:33:55.809Z,21472.00
2019-05-25T05:34:55.837Z,22848.00
2019-05-25T05:35:55.836Z,23264.00
2019-05-25T05:36:55.839Z,22944.00
2019-05-25T05:37:55.870Z,23200.00
2019-05-25T05:38:55.894Z,23776.00
2019-05-25T05:39:55.900Z,23552.00
2019-05-25T05:40:55.916Z,22464.00
2019-05-25T05:41:55.896Z,22816.00
2019-05-25T05:42:55.914Z,23520.00
2019-05-25T05:43:55.931Z,23904.00
2019-05-25T05:44:55.958Z,24096.00
2019-05-25T05:45:56.063Z,24192.00
2019-05-25T05:46:55.994Z,23296.00
2019-05-25T05:47:56.007Z,24448.00
2019-05-25T05:48:56.009Z,23744.00
2019-05-25T05:49:56.039Z,22880.00
2019-05-25T05:50:56.076Z,19104.00
2019-05-25T05:51:56.053Z,19456.00
2019-05-25T05:52:56.117Z,21056.00
2019-05-25T05:53:56.176Z,20384.00
2019-05-25T05:54:56.096Z,22240.00
2019-05-25T05:55:56.250Z,23392.00
2019-05-25T05:57:11.067Z,23136.00
2019-05-25T05:57:56.174Z,24000.00
2019-05-25T05:58:56.152Z,24032.00
2019-05-25T05:59:56.179Z,23840.00
2019-05-25T06:00:56.210Z,24064.00
2019-05-25T06:01:56.213Z,23936.00
2019-05-25T06:02:56.255Z,24032.00
2019-05-25T06:03:56.270Z,23680.00
2019-05-25T06:04:56.257Z,24128.00
2019-05-25T06:05:56.261Z,24192.00
2019-05-25T06:06:56.286Z,24544.00
2019-05-25T06:07:56.320Z,23872.00
2019-05-25T06:08:56.393Z,23968.00
2019-05-25T06:09:56.329Z,24704.00
2019-05-25T06:10:56.351Z,25696.00
2019-05-25T06:11:56.369Z,24608.00
2019-05-25T06:12:56.383Z,24000.00
2019-05-25T06:13:56.413Z,25568.00
2019-05-25T06:14:56.436Z,27008.00
2019-05-25T06:15:56.446Z,8248.00
2019-05-25T06:16:56.455Z,23712.00
2019-05-25T06:17:56.444Z,6980.00
2019-05-25T06:18:56.491Z,7840.00
2019-05-25T06:19:56.517Z,29120.00
2019-05-25T06:20:56.495Z,11616.00
2019-05-25T06:21:56.546Z,11060.00
2019-05-25T06:22:56.720Z,18496.00
2019-05-25T06:23:56.576Z,10608.00
2019-05-25T06:24:56.611Z,17792.00
2019-05-25T06:25:56.600Z,18976.00
2019-05-25T06:26:56.577Z,7404.00
2019-05-25T06:27:56.609Z,10064.00
2019-05-25T06:28:56.675Z,15988.00
2019-05-25T06:29:56.627Z,25728.00
2019-05-25T06:30:56.705Z,24992.00
2019-05-25T06:31:56.686Z,23584.00
2019-05-25T06:32:56.683Z,19040.00
2019-05-25T06:33:56.698Z,25056.00
2019-05-25T06:34:56.826Z,26880.00
2019-05-25T06:35:56.761Z,27168.00
2019-05-25T06:36:56.733Z,27424.00
2019-05-25T06:37:56.760Z,27552.00
2019-05-25T06:38:56.783Z,23200.00
2019-05-25T06:39:56.780Z,11756.00
2019-05-25T06:40:56.816Z,13268.00
2019-05-25T06:41:56.831Z,17728.00
2019-05-25T06:42:56.819Z,14912.00
2019-05-25T06:43:56.863Z,13636.00
2019-05-25T06:44:56.851Z,13672.00
2019-05-25T06:45:56.876Z,13560.00
2019-05-25T06:46:56.976Z,13268.00
2019-05-25T06:47:56.892Z,13320.00
2019-05-25T06:48:56.957Z,14552.00
2019-05-25T06:49:56.963Z,16440.00
2019-05-25T06:50:56.963Z,24896.00
2019-05-25T06:51:57.066Z,17600.00
2019-05-25T06:52:58.052Z,15352.00
2019-05-25T06:53:56.977Z,19680.00
2019-05-25T06:54:56.995Z,12948.00
2019-05-25T06:55:57.037Z,12968.00
2019-05-25T06:56:57.062Z,13012.00
2019-05-25T06:57:57.048Z,12280.00
2019-05-25T06:58:57.279Z,11696.00
2019-05-25T06:59:57.287Z,12724.00
2019-05-25T07:00:57.071Z,13604.00
2019-05-25T07:01:57.130Z,12584.00
2019-05-25T07:02:57.092Z,11940.00
2019-05-25T07:03:57.123Z,11388.00
2019-05-25T07:04:57.128Z,11164.00
2019-05-25T07:05:57.147Z,11276.00
2019-05-25T07:06:57.179Z,11408.00
2019-05-25T07:07:57.186Z,11568.00
2019-05-25T07:08:57.228Z,12044.00
2019-05-25T07:09:57.196Z,11964.00
2019-05-25T07:10:57.208Z,12472.00
2019-05-25T07:11:57.219Z,13380.00
2019-05-25T07:12:57.312Z,13284.00
2019-05-25T07:13:57.292Z,12464.00
2019-05-25T07:14:57.260Z,11472.00
2019-05-25T07:15:57.285Z,11492.00
2019-05-25T07:16:57.303Z,11912.00
2019-05-25T07:17:57.304Z,12472.00
2019-05-25T07:18:58.052Z,12064.00
2019-05-25T07:19:57.312Z,10828.00
2019-05-25T07:20:57.365Z,10572.00
2019-05-25T07:21:57.350Z,11560.00
2019-05-25T07:22:57.360Z,11960.00
2019-05-25T07:23:57.411Z,12316.00
2019-05-25T07:24:57.390Z,12224.00
2019-05-25T07:25:57.490Z,13792.00
2019-05-25T07:26:57.390Z,14148.00
2019-05-25T07:28:00.075Z,14392.00
2019-05-25T07:28:57.466Z,13640.00
2019-05-25T07:29:57.434Z,13012.00
2019-05-25T07:30:57.458Z,12992.00
2019-05-25T07:31:57.474Z,13944.00
2019-05-25T07:32:57.484Z,13920.00
2019-05-25T07:33:57.482Z,13264.00
2019-05-25T07:34:57.541Z,11996.00
2019-05-25T07:35:57.531Z,12160.00
2019-05-25T07:36:57.526Z,12372.00
2019-05-25T07:37:57.551Z,12544.00
2019-05-25T07:38:57.535Z,13172.00
2019-05-25T07:39:57.548Z,12768.00
2019-05-25T07:40:57.570Z,11624.00
2019-05-25T07:41:57.573Z,11976.00
2019-05-25T07:42:57.633Z,12916.00
2019-05-25T07:43:57.602Z,13008.00
2019-05-25T07:44:57.610Z,12716.00
2019-05-25T07:45:57.654Z,12336.00
2019-05-25T07:46:57.670Z,12808.00
2019-05-25T07:47:57.699Z,12596.00
2019-05-25T07:48:57.644Z,12764.00
2019-05-25T07:49:57.684Z,12464.00
2019-05-25T07:50:57.667Z,11652.00
2019-05-25T07:51:57.708Z,10508.00
2019-05-25T07:52:57.812Z,9804.00
2019-05-25T07:53:57.729Z,9492.00
2019-05-25T07:54:57.749Z,9520.00
2019-05-25T07:55:57.747Z,9420.00
2019-05-25T07:56:57.790Z,10004.00
2019-05-25T07:57:57.744Z,10124.00
2019-05-25T07:58:57.857Z,10820.00
2019-05-25T07:59:57.774Z,11304.00
2019-05-25T08:00:57.926Z,11444.00
2019-05-25T08:01:57.832Z,12236.00
2019-05-25T08:02:57.860Z,14204.00
2019-05-25T08:03:57.852Z,14216.00
2019-05-25T08:04:57.849Z,12548.00
2019-05-25T08:05:57.849Z,11532.00
2019-05-25T08:06:57.861Z,12144.00
2019-05-25T08:07:57.931Z,12836.00
2019-05-25T08:08:57.877Z,11876.00
2019-05-25T08:09:57.891Z,10692.00
2019-05-25T08:10:57.891Z,10520.00
2019-05-25T08:11:58.576Z,10780.00
2019-05-25T08:12:57.984Z,9936.00
2019-05-25T08:13:57.931Z,8992.00
2019-05-25T08:14:57.948Z,8952.00
2019-05-25T08:15:57.976Z,10164.00
2019-05-25T08:16:57.959Z,10560.00
2019-05-25T08:17:58.068Z,10344.00
2019-05-25T08:18:58.036Z,11380.00
2019-05-25T08:19:57.998Z,12564.00
2019-05-25T08:20:58.092Z,13580.00
2019-05-25T08:21:58.030Z,13196.00
2019-05-25T08:22:58.097Z,12512.00
2019-05-25T08:23:58.148Z,12124.00
2019-05-25T08:24:58.110Z,11600.00
2019-05-25T08:25:58.096Z,10712.00
2019-05-25T08:26:58.084Z,9624.00
2019-05-25T08:27:58.093Z,9412.00
2019-05-25T08:28:58.132Z,8928.00
2019-05-25T08:29:58.192Z,8608.00
2019-05-25T08:31:01.137Z,8612.00
2019-05-25T08:31:58.148Z,8720.00
2019-05-25T08:32:58.149Z,8908.00
2019-05-25T08:33:58.164Z,8628.00
2019-05-25T08:34:58.257Z,8516.00
2019-05-25T08:35:58.187Z,7972.00
2019-05-25T08:36:58.212Z,7588.00
2019-05-25T08:37:58.223Z,7756.00
2019-05-25T08:38:58.247Z,7492.00
2019-05-25T08:39:58.293Z,7180.00
2019-05-25T08:40:58.253Z,7660.00
2019-05-25T08:41:58.234Z,7872.00
2019-05-25T08:42:58.261Z,7896.00
2019-05-25T08:43:58.270Z,7992.00
2019-05-25T08:44:58.332Z,7956.00
2019-05-25T08:45:58.359Z,7632.00
2019-05-25T08:46:58.299Z,7816.00
2019-05-25T08:47:58.303Z,8776.00
2019-05-25T08:48:58.313Z,9136.00
2019-05-25T08:49:58.380Z,9216.00
2019-05-25T08:50:59.736Z,9120.00
2019-05-25T08:51:58.379Z,8888.00
2019-05-25T08:52:58.397Z,8752.00
2019-05-25T08:53:58.373Z,9328.00
2019-05-25T08:54:58.386Z,10532.00
2019-05-25T08:55:58.409Z,11064.00
2019-05-25T08:56:58.413Z,9924.00
2019-05-25T08:57:58.565Z,8908.00
2019-05-25T08:58:58.428Z,9004.00
2019-05-25T08:59:58.451Z,9840.00
2019-05-25T09:00:58.483Z,10120.00
2019-05-25T09:01:58.461Z,9792.00
2019-05-25T09:02:58.501Z,8884.00
2019-05-25T09:03:58.496Z,8352.00
2019-05-25T09:04:58.487Z,8360.00
2019-05-25T09:05:58.538Z,8896.00
2019-05-25T09:06:58.588Z,9020.00
2019-05-25T09:07:59.152Z,9308.00
2019-05-25T09:08:58.533Z,9736.00
2019-05-25T09:09:58.641Z,10140.00
2019-05-25T09:10:58.573Z,9948.00
2019-05-25T09:11:58.564Z,8916.00
2019-05-25T09:12:58.586Z,8264.00
2019-05-25T09:13:58.580Z,8000.00
2019-05-25T09:14:58.636Z,8552.00
2019-05-25T09:15:58.602Z,9096.00
2019-05-25T09:16:58.629Z,9416.00
2019-05-25T09:17:58.656Z,10408.00
2019-05-25T09:18:58.712Z,11992.00
2019-05-25T09:19:58.667Z,13672.00
2019-05-25T09:20:59.243Z,14980.00
2019-05-25T09:22:02.473Z,15796.00
2019-05-25T09:22:58.673Z,16688.00
2019-05-25T09:23:59.763Z,17052.00
2019-05-25T09:24:58.776Z,17632.00
2019-05-25T09:25:58.880Z,17728.00
2019-05-25T09:26:58.790Z,18080.00
2019-05-25T09:27:58.773Z,18112.00
2019-05-25T09:29:04.448Z,17472.00
2019-05-25T09:29:59.808Z,16024.00
2019-05-25T09:30:58.770Z,14748.00
2019-05-25T09:31:58.887Z,13060.00
2019-05-25T09:32:58.812Z,11520.00
2019-05-25T09:33:58.835Z,9988.00
2019-05-25T09:34:58.902Z,8644.00
2019-05-25T09:35:58.842Z,8176.00
2019-05-25T09:36:58.873Z,8036.00
2019-05-25T09:37:58.824Z,7892.00
2019-05-25T09:38:58.853Z,7912.00
2019-05-25T09:39:58.961Z,8032.00
2019-05-25T09:40:58.878Z,8332.00
2019-05-25T09:41:58.905Z,8560.00
2019-05-25T09:42:58.904Z,8216.00
2019-05-25T09:43:58.902Z,7872.00
2019-05-25T09:44:58.961Z,7960.00
2019-05-25T11:13:16.869Z,17632.00
2019-05-25T11:14:16.832Z,18752.00
2019-05-25T11:15:16.892Z,18784.00
2019-05-25T11:16:16.871Z,19296.00
2019-05-25T11:17:16.864Z,19840.00
2019-05-25T11:18:16.889Z,20480.00
2019-05-25T11:19:16.888Z,20960.00
2019-05-25T11:20:16.915Z,21056.00
2019-05-25T11:21:16.918Z,21376.00
2019-05-25T11:22:16.939Z,21504.00
2019-05-25T11:23:16.972Z,21824.00
2019-05-25T11:24:16.953Z,21824.00
2019-05-25T11:25:16.963Z,21760.00
2019-05-25T11:26:17.014Z,20960.00
2019-05-25T11:27:16.979Z,20192.00
2019-05-25T11:28:17.070Z,19104.00
2019-05-25T11:29:17.022Z,18336.00
2019-05-25T11:30:17.019Z,18560.00
2019-05-25T11:31:17.070Z,18656.00
2019-05-25T11:32:17.128Z,18688.00
2019-05-25T11:33:17.098Z,18496.00
2019-05-25T11:34:17.104Z,17824.00
2019-05-25T11:35:17.102Z,16680.00
2019-05-25T11:36:17.146Z,16004.00
2019-05-25T11:37:17.160Z,15888.00
2019-05-25T11:38:17.119Z,16268.00
2019-05-25T11:39:17.136Z,16552.00
2019-05-25T11:40:17.149Z,16808.00
2019-05-25T11:41:17.406Z,16884.00
2019-05-25T11:42:17.500Z,16056.00
2019-05-25T11:43:17.361Z,15724.00
2019-05-25T11:44:17.212Z,14788.00
2019-05-25T11:45:17.649Z,14324.00
2019-05-25T11:46:17.327Z,14148.00
2019-05-25T11:47:17.345Z,13976.00
2019-05-25T11:48:17.385Z,12884.00
2019-05-25T11:49:22.626Z,12256.00
2019-05-25T11:50:17.393Z,12020.00
2019-05-25T11:51:17.593Z,12096.00
2019-05-25T11:52:17.697Z,12912.00
2019-05-25T11:53:17.334Z,13448.00
2019-05-25T11:54:17.498Z,13588.00
2019-05-25T11:55:17.412Z,13276.00
2019-05-25T11:56:17.353Z,12944.00
2019-05-25T11:57:17.382Z,12812.00
2019-05-25T11:58:17.745Z,13544.00
2019-05-25T11:59:17.382Z,14932.00
2019-05-25T12:00:24.795Z,16756.00
2019-05-25T12:01:17.475Z,17856.00
2019-05-25T12:02:17.445Z,18336.00
2019-05-25T12:03:17.449Z,18560.00
2019-05-25T12:04:17.466Z,18528.00
2019-05-25T12:05:17.493Z,17984.00
2019-05-25T12:06:17.497Z,17920.00
2019-05-25T12:07:19.838Z,17536.00
2019-05-25T12:08:17.524Z,16756.00
2019-05-25T12:09:17.572Z,17092.00
2019-05-25T12:10:17.543Z,17696.00
2019-05-25T12:11:17.544Z,16980.00
2019-05-25T12:12:17.549Z,16396.00
2019-05-25T12:13:17.596Z,15412.00
2019-05-25T12:14:17.602Z,14716.00
2019-05-25T12:15:17.883Z,14168.00
2019-05-25T12:16:17.640Z,14500.00
2019-05-25T12:17:17.624Z,15520.00
2019-05-25T12:18:17.623Z,15456.00
2019-05-25T12:19:17.723Z,15128.00
2019-05-25T12:20:17.734Z,15928.00
2019-05-25T12:21:17.704Z,17312.00
2019-05-25T12:22:17.690Z,18112.00
2019-05-25T12:23:17.706Z,18528.00
2019-05-25T12:24:17.713Z,18496.00
2019-05-25T12:25:18.729Z,18976.00
2019-05-25T12:26:18.795Z,19584.00
2019-05-25T12:27:17.788Z,19776.00
2019-05-25T12:28:17.826Z,19456.00
2019-05-25T12:29:17.772Z,18880.00
2019-05-25T12:30:17.803Z,18368.00
2019-05-25T12:31:17.847Z,17408.00
2019-05-25T12:32:17.807Z,16916.00
2019-05-25T12:33:17.837Z,16504.00
2019-05-25T12:34:17.896Z,15800.00
2019-05-25T12:35:17.832Z,15084.00
2019-05-25T12:36:17.878Z,14412.00
2019-05-25T12:37:17.943Z,13404.00
2019-05-25T12:38:17.870Z,12036.00
2019-05-25T12:39:17.957Z,10664.00
2019-05-25T12:40:17.979Z,10124.00
2019-05-25T12:41:18.944Z,10164.00
2019-05-25T12:42:17.922Z,10648.00
2019-05-25T12:43:17.941Z,11096.00
2019-05-25T12:44:17.980Z,11284.00
2019-05-25T12:45:17.967Z,11432.00
2019-05-25T12:46:18.110Z,12032.00
2019-05-25T12:47:18.040Z,12652.00
2019-05-25T12:48:18.003Z,12388.00
2019-05-25T12:49:18.028Z,12300.00
2019-05-25T12:50:18.103Z,12600.00
2019-05-25T12:51:18.134Z,13056.00
2019-05-25T12:52:18.054Z,13640.00
2019-05-25T12:53:18.063Z,13496.00
2019-05-25T12:54:18.104Z,12940.00
2019-05-25T12:55:18.114Z,12956.00
2019-05-25T12:56:19.794Z,13440.00
2019-05-25T12:57:18.125Z,14232.00
2019-05-25T12:58:18.133Z,14772.00
2019-05-25T12:59:18.171Z,16356.00
2019-05-25T13:00:18.184Z,16764.00
2019-05-25T13:01:18.168Z,17344.00
2019-05-25T13:02:18.176Z,16956.00
2019-05-25T13:03:18.214Z,16920.00
2019-05-25T13:04:18.225Z,17248.00
2019-05-25T13:05:32.929Z,17984.00
2019-05-25T13:06:18.556Z,18848.00
2019-05-25T13:07:18.275Z,19040.00
2019-05-25T13:08:18.499Z,18656.00
2019-05-25T13:09:18.260Z,18432.00
2019-05-25T13:10:18.277Z,18144.00
2019-05-25T13:11:19.029Z,18304.00
2019-05-25T13:12:18.327Z,17888.00
2019-05-25T13:13:18.620Z,15944.00
2019-05-25T13:14:18.376Z,14084.00
2019-05-25T13:15:18.334Z,13072.00
2019-05-25T13:16:18.365Z,13656.00
2019-05-25T13:17:18.369Z,14700.00
2019-05-25T13:18:18.413Z,15432.00
2019-05-25T13:19:18.491Z,15552.00
2019-05-25T13:20:18.593Z,15504.00
2019-05-25T13:21:18.399Z,14652.00
2019-05-25T13:22:18.435Z,14224.00
2019-05-25T13:23:18.510Z,14292.00
2019-05-25T13:24:18.453Z,14176.00
2019-05-25T13:25:18.443Z,14136.00
2019-05-25T13:26:18.467Z,14116.00
2019-05-25T13:27:18.467Z,13784.00
2019-05-25T13:28:19.031Z,14380.00
2019-05-25T13:29:18.544Z,14708.00
2019-05-25T13:30:18.506Z,13240.00
2019-05-25T13:31:18.555Z,11648.00
2019-05-25T13:32:18.561Z,11104.00
2019-05-25T13:33:18.543Z,11348.00
2019-05-25T13:34:18.632Z,11596.00
2019-05-25T13:35:18.589Z,12308.00
2019-05-25T13:36:18.624Z,13156.00
2019-05-25T13:37:18.610Z,13696.00